Time;durP1;ratioP1;P1;durP2;ratioP2;P2;SDS_P1;SDS_P2;PMS_P1;PMS_P2;Temp;Humidity;BMP_temperature;BMP_pressure;BME280_temperature;BME280_humidity;BME280_pressure;Samples;Min_cycle;Max_cycle;Signal;HPM_P1;HPM_P2
2021/12/11 00:00:33;;;;;;;2.47;1.57;;;3.20;95.20;;;;;;5037486;28;20194;-87
2021/12/11 00:03:04;;;;;;;3.93;2.00;;;3.30;94.90;;;;;;5039067;28;20796;-87
2021/12/11 00:05:37;;;;;;;3.53;1.60;;;3.40;94.70;;;;;;5019550;28;20280;-87
2021/12/11 00:08:07;;;;;;;1.67;1.30;;;3.20;94.70;;;;;;5036623;28;20366;-86
2021/12/11 00:10:43;;;;;;;1.70;1.47;;;3.20;94.70;;;;;;5048944;28;20194;-86
2021/12/11 00:13:15;;;;;;;2.63;1.40;;;3.30;94.70;;;;;;5033223;28;20218;-86
2021/12/11 00:15:46;;;;;;;3.07;1.43;;;3.20;94.70;;;;;;5033279;28;20199;-87
2021/12/11 00:18:18;;;;;;;4.27;1.67;;;3.20;94.70;;;;;;5035551;28;20225;-87
2021/12/11 00:20:51;;;;;;;2.20;1.63;;;3.20;95.00;;;;;;5036362;28;20202;-88
2021/12/11 00:23:21;;;;;;;2.63;1.40;;;3.20;95.10;;;;;;5019454;28;20222;-87
2021/12/11 00:25:50;;;;;;;2.40;1.47;;;3.20;94.90;;;;;;5056044;28;20233;-88
2021/12/11 00:28:17;;;;;;;2.57;1.40;;;3.20;94.70;;;;;;5036703;28;20304;-86
2021/12/11 00:30:46;;;;;;;3.37;1.70;;;3.10;94.90;;;;;;5031892;28;20199;-86
2021/12/11 00:33:18;;;;;;;2.97;1.40;;;3.20;94.90;;;;;;5036741;28;20282;-87
2021/12/11 00:35:46;;;;;;;1.63;1.43;;;3.20;94.70;;;;;;5036274;28;20202;-87
2021/12/11 00:38:17;;;;;;;1.90;1.37;;;3.20;94.70;;;;;;5032500;28;20241;-87
2021/12/11 00:40:48;;;;;;;2.00;1.50;;;3.20;94.70;;;;;;5035937;28;20198;-87
2021/12/11 00:43:21;;;;;;;1.97;1.30;;;3.20;94.70;;;;;;5034429;28;20226;-87
2021/12/11 00:45:50;;;;;;;1.30;1.10;;;3.10;94.70;;;;;;5040514;28;20217;-87
2021/12/11 00:48:22;;;;;;;2.90;1.30;;;3.10;95.00;;;;;;5034568;28;20226;-86
2021/12/11 00:50:53;;;;;;;1.77;1.50;;;3.10;94.90;;;;;;5034296;28;20195;-86
2021/12/11 00:53:24;;;;;;;1.43;1.33;;;3.10;94.80;;;;;;5040454;28;20227;-86
2021/12/11 00:55:54;;;;;;;2.97;1.40;;;3.10;94.70;;;;;;5013837;28;20336;-86
2021/12/11 00:58:24;;;;;;;2.10;1.30;;;3.20;94.70;;;;;;5022860;28;20234;-86
2021/12/11 01:00:55;;;;;;;2.63;1.40;;;3.10;94.70;;;;;;5040538;28;20194;-88
2021/12/11 01:03:26;;;;;;;2.13;1.27;;;3.20;94.70;;;;;;5035658;28;20237;-87
2021/12/11 01:05:56;;;;;;;1.13;1.00;;;3.20;94.70;;;;;;5036127;28;20619;-86
2021/12/11 01:08:38;;;;;;;1.80;1.23;;;3.30;94.70;;;;;;5033953;28;20601;-87
2021/12/11 01:11:11;;;;;;;2.00;1.37;;;3.30;94.70;;;;;;5040197;28;20194;-86
2021/12/11 01:13:43;;;;;;;2.07;1.30;;;3.20;94.70;;;;;;5041756;28;20234;-86
2021/12/11 01:16:14;;;;;;;2.00;1.30;;;3.20;94.70;;;;;;5028017;28;20206;-86
2021/12/11 01:18:45;;;;;;;1.77;1.10;;;3.30;94.70;;;;;;5029383;28;20313;-85
2021/12/11 01:21:31;;;;;;;1.67;1.20;;;3.30;94.10;;;;;;5011579;28;20961;-85
2021/12/11 01:24:13;;;;;;;1.77;1.30;;;3.40;94.10;;;;;;5038230;28;20278;-87
2021/12/11 01:26:46;;;;;;;2.10;1.10;;;3.30;94.00;;;;;;5030779;28;20557;-85
2021/12/11 01:29:15;;;;;;;1.47;1.17;;;3.20;94.50;;;;;;5032535;28;20222;-85
2021/12/11 01:31:43;;;;;;;2.40;1.27;;;3.20;94.70;;;;;;5035033;28;20198;-86
2021/12/11 01:34:10;;;;;;;1.73;1.17;;;3.30;94.20;;;;;;5040940;28;20218;-86
2021/12/11 01:36:38;;;;;;;1.67;1.20;;;3.20;94.30;;;;;;5041154;28;20203;-85
2021/12/11 01:39:09;;;;;;;1.20;1.10;;;3.30;93.90;;;;;;5027319;28;20218;-86
2021/12/11 01:41:36;;;;;;;1.03;0.90;;;3.30;93.80;;;;;;5032607;28;20244;-85
2021/12/11 01:44:11;;;;;;;1.70;1.23;;;3.20;94.10;;;;;;5033156;28;20227;-87
2021/12/11 01:46:40;;;;;;;1.10;1.00;;;3.30;94.00;;;;;;5029614;28;20236;-88
2021/12/11 01:49:12;;;;;;;2.23;1.13;;;3.20;94.40;;;;;;5034545;28;20245;-87
2021/12/11 01:51:44;;;;;;;2.50;1.50;;;3.20;94.00;;;;;;5031542;28;20643;-86
2021/12/11 01:54:17;;;;;;;1.93;1.20;;;3.30;93.90;;;;;;5013680;28;20223;-86
2021/12/11 01:56:47;;;;;;;1.13;0.97;;;3.30;93.70;;;;;;5035244;28;20198;-87
2021/12/11 01:59:20;;;;;;;2.27;1.30;;;3.20;93.90;;;;;;5037927;28;20229;-87
2021/12/11 02:01:53;;;;;;;2.50;1.10;;;3.20;94.00;;;;;;5032419;28;20198;-91
2021/12/11 02:04:25;;;;;;;1.10;1.00;;;3.20;94.10;;;;;;5030048;28;20696;-86
2021/12/11 02:06:54;;;;;;;1.30;1.20;;;3.20;93.70;;;;;;5038331;28;20202;-88
2021/12/11 02:09:25;;;;;;;1.53;1.03;;;3.30;93.90;;;;;;5035961;28;20225;-86
2021/12/11 02:12:02;;;;;;;1.83;1.30;;;3.30;93.70;;;;;;5037577;28;20203;-86
2021/12/11 02:14:35;;;;;;;1.27;1.17;;;3.30;93.90;;;;;;5007638;28;20333;-86
2021/12/11 02:17:05;;;;;;;2.13;1.20;;;3.30;93.50;;;;;;5032386;28;20278;-87
2021/12/11 02:19:36;;;;;;;1.10;1.00;;;3.30;93.90;;;;;;5028038;28;20217;-86
2021/12/11 02:22:12;;;;;;;1.27;1.17;;;3.20;93.70;;;;;;5036696;28;20606;-86
2021/12/11 02:24:43;;;;;;;2.70;1.30;;;3.20;93.60;;;;;;5025796;28;20677;-85
2021/12/11 02:27:14;;;;;;;2.23;1.43;;;3.30;93.50;;;;;;5026640;28;20273;-86
2021/12/11 02:29:44;;;;;;;2.77;1.30;;;3.30;93.50;;;;;;5034786;28;20198;-86
2021/12/11 02:32:17;;;;;;;1.57;1.47;;;3.30;93.50;;;;;;5033260;28;20274;-85
2021/12/11 02:34:48;;;;;;;1.70;1.10;;;3.20;93.50;;;;;;5042056;28;20297;-86
2021/12/11 02:37:18;;;;;;;2.37;1.60;;;3.10;94.00;;;;;;5042550;28;20649;-84
2021/12/11 02:39:51;;;;;;;2.13;1.20;;;3.20;93.60;;;;;;5042929;28;20191;-84
2021/12/11 02:42:26;;;;;;;1.50;1.40;;;3.20;93.30;;;;;;5038837;28;20209;-86
2021/12/11 02:44:57;;;;;;;1.30;1.20;;;3.10;93.70;;;;;;5043527;28;20202;-85
2021/12/11 02:47:30;;;;;;;1.67;1.40;;;3.10;93.80;;;;;;5046207;28;20214;-87
2021/12/11 02:50:04;;;;;;;1.30;1.20;;;3.10;94.20;;;;;;5037764;28;20194;-86
2021/12/11 02:52:39;;;;;;;1.57;1.30;;;3.10;94.00;;;;;;5030966;28;20236;-86
2021/12/11 02:55:12;;;;;;;2.73;1.13;;;3.10;94.20;;;;;;5017079;28;20247;-86
2021/12/11 02:57:45;;;;;;;1.00;1.00;;;3.20;93.50;;;;;;5035194;28;20610;-87
2021/12/11 03:00:17;;;;;;;2.50;1.37;;;3.20;93.90;;;;;;5026247;28;20658;-86
2021/12/11 03:02:50;;;;;;;1.57;1.30;;;3.20;93.80;;;;;;5035100;28;20230;-86
2021/12/11 03:05:23;;;;;;;1.20;1.10;;;3.20;93.70;;;;;;5044028;28;21042;-86
2021/12/11 03:07:53;;;;;;;2.33;1.30;;;3.20;93.70;;;;;;5036787;28;20248;-87
2021/12/11 03:10:23;;;;;;;1.67;1.13;;;3.20;93.60;;;;;;5019437;28;20202;-86
2021/12/11 03:12:52;;;;;;;1.70;1.20;;;3.20;93.60;;;;;;5034276;28;20702;-87
2021/12/11 03:15:20;;;;;;;1.47;1.30;;;3.20;93.70;;;;;;5044286;28;20206;-86
2021/12/11 03:17:47;;;;;;;1.80;1.00;;;3.20;93.50;;;;;;5036308;28;20222;-85
2021/12/11 03:20:20;;;;;;;1.50;1.33;;;3.30;93.40;;;;;;5039181;28;20195;-86
2021/12/11 03:22:47;;;;;;;1.90;1.33;;;3.30;93.50;;;;;;5043617;28;20262;-87
2021/12/11 03:25:18;;;;;;;2.07;1.30;;;3.30;93.50;;;;;;5050661;28;20230;-86
2021/12/11 03:27:47;;;;;;;1.87;1.07;;;3.30;93.50;;;;;;5053470;28;20249;-85
2021/12/11 03:30:21;;;;;;;1.20;1.10;;;3.30;93.20;;;;;;5021110;28;20290;-85
2021/12/11 03:32:48;;;;;;;1.40;1.30;;;3.10;93.80;;;;;;5031762;28;20300;-85
2021/12/11 03:35:15;;;;;;;1.87;1.30;;;3.10;94.00;;;;;;5031443;28;20199;-86
2021/12/11 03:37:43;;;;;;;2.00;1.20;;;3.20;93.70;;;;;;5027273;28;20685;-85
2021/12/11 03:40:11;;;;;;;1.73;1.27;;;3.30;93.70;;;;;;5026476;28;20669;-86
2021/12/11 03:42:41;;;;;;;2.20;1.30;;;3.20;93.80;;;;;;5040490;28;20233;-86
2021/12/11 03:45:13;;;;;;;1.57;1.20;;;3.20;93.80;;;;;;5035328;28;20705;-86
2021/12/11 03:47:44;;;;;;;2.27;1.33;;;3.20;93.90;;;;;;5035940;28;20229;-86
2021/12/11 03:50:14;;;;;;;1.70;1.37;;;3.30;93.80;;;;;;5029125;28;20204;-85
2021/12/11 03:52:43;;;;;;;1.50;1.20;;;3.30;93.70;;;;;;5010096;28;20223;-85
2021/12/11 03:55:12;;;;;;;1.77;1.23;;;3.20;93.80;;;;;;5033935;28;20191;-85
2021/12/11 03:57:42;;;;;;;2.47;1.70;;;3.20;94.00;;;;;;5035868;28;20227;-87
2021/12/11 04:00:18;;;;;;;2.43;1.40;;;3.10;94.50;;;;;;5036451;28;20639;-86
2021/12/11 04:02:47;;;;;;;1.80;1.60;;;3.10;94.70;;;;;;5033116;28;20696;-85
2021/12/11 04:05:14;;;;;;;1.53;1.43;;;3.10;94.70;;;;;;5042147;28;20257;-86
2021/12/11 04:07:44;;;;;;;1.57;1.30;;;3.10;94.70;;;;;;5047578;28;20272;-86
2021/12/11 04:10:14;;;;;;;2.33;1.47;;;3.10;94.70;;;;;;5038885;28;20221;-86
2021/12/11 04:12:44;;;;;;;2.37;1.60;;;3.10;94.70;;;;;;5033426;28;20229;-86
2021/12/11 04:15:13;;;;;;;3.73;1.40;;;3.20;94.70;;;;;;5036311;28;20198;-86
2021/12/11 04:17:40;;;;;;;1.90;1.40;;;3.20;94.70;;;;;;5032983;28;20229;-86
2021/12/11 04:20:10;;;;;;;4.03;1.50;;;3.20;94.70;;;;;;5017245;28;20199;-85
2021/12/11 04:22:39;;;;;;;3.40;1.57;;;3.10;94.70;;;;;;5031991;28;20231;-86
2021/12/11 04:25:08;;;;;;;1.40;1.20;;;3.10;95.10;;;;;;5032416;28;20199;-86
2021/12/11 04:27:35;;;;;;;3.23;1.40;;;3.00;95.40;;;;;;5021872;28;20222;-87
2021/12/11 04:30:08;;;;;;;1.90;1.40;;;3.00;95.50;;;;;;5034040;28;20203;-86
2021/12/11 04:32:35;;;;;;;2.63;1.50;;;3.00;95.90;;;;;;5038203;28;20222;-85
2021/12/11 04:35:04;;;;;;;2.80;1.47;;;2.90;95.80;;;;;;5034225;28;20202;-86
2021/12/11 04:37:33;;;;;;;4.80;2.03;;;2.90;96.20;;;;;;5015117;28;20568;-87
2021/12/11 04:40:05;;;;;;;4.10;1.73;;;2.80;96.50;;;;;;5034416;28;20203;-89
2021/12/11 04:42:45;;;;;;;4.50;1.80;;;2.70;96.90;;;;;;5029088;28;20227;-86
2021/12/11 04:45:18;;;;;;;1.90;1.70;;;2.70;97.20;;;;;;5024747;28;20246;-87
2021/12/11 04:47:50;;;;;;;2.90;1.70;;;2.70;97.20;;;;;;5036085;28;20222;-85
2021/12/11 04:50:28;;;;;;;3.20;1.53;;;2.60;97.20;;;;;;5046562;28;20194;-86
2021/12/11 04:52:57;;;;;;;1.90;1.40;;;2.60;97.70;;;;;;5040082;28;20232;-88
2021/12/11 04:55:48;;;;;;;3.00;1.67;;;2.50;97.70;;;;;;5040129;28;20218;-87
2021/12/11 04:58:40;;;;;;;1.80;1.70;;;2.50;97.90;;;;;;5032742;28;20222;-88
2021/12/11 05:01:27;;;;;;;4.47;1.60;;;2.50;97.90;;;;;;5028516;28;20646;-87
2021/12/11 05:06:53;;;;;;;3.23;1.80;;;2.40;98.60;;;;;;5036953;28;20218;-86
2021/12/11 05:09:27;;;;;;;2.90;1.50;;;2.50;98.30;;;;;;5019651;28;20579;-86
2021/12/11 05:12:08;;;;;;;1.93;1.60;;;2.60;98.00;;;;;;5036748;28;20218;-87
2021/12/11 05:14:36;;;;;;;3.27;1.70;;;2.50;98.20;;;;;;5011436;28;20227;-87
2021/12/11 05:17:06;;;;;;;3.43;1.60;;;2.60;98.40;;;;;;5035895;28;20209;-86
2021/12/11 05:19:33;;;;;;;5.07;1.93;;;2.60;98.20;;;;;;5033068;28;20217;-87
2021/12/11 05:22:02;;;;;;;3.20;1.70;;;2.60;98.10;;;;;;5037127;28;20194;-86
2021/12/11 05:24:30;;;;;;;2.10;1.57;;;2.50;98.30;;;;;;5037473;28;20239;-85
2021/12/11 05:26:57;;;;;;;2.60;1.60;;;2.50;98.40;;;;;;5035907;28;20222;-86
2021/12/11 05:29:26;;;;;;;2.17;1.80;;;2.60;98.30;;;;;;5034691;28;20229;-87
2021/12/11 05:31:54;;;;;;;3.63;1.73;;;2.60;98.20;;;;;;5025389;28;20206;-87
2021/12/11 05:34:22;;;;;;;1.83;1.60;;;2.50;98.30;;;;;;5033825;28;20576;-87
2021/12/11 05:36:49;;;;;;;2.37;1.50;;;2.50;98.40;;;;;;5034081;28;20198;-87
2021/12/11 05:39:19;;;;;;;3.30;1.80;;;2.50;98.30;;;;;;5031043;28;20239;-86
2021/12/11 05:41:50;;;;;;;3.17;1.70;;;2.50;98.40;;;;;;5031245;28;20195;-86
2021/12/11 05:44:18;;;;;;;3.07;1.43;;;2.50;98.30;;;;;;5037148;28;20238;-86
2021/12/11 05:46:45;;;;;;;1.50;1.40;;;2.50;98.40;;;;;;5047152;28;20222;-85
2021/12/11 05:49:14;;;;;;;3.93;2.20;;;2.60;98.20;;;;;;5029975;28;20685;-86
2021/12/11 05:51:44;;;;;;;3.27;1.77;;;2.50;98.20;;;;;;5049520;28;20202;-86
2021/12/11 05:54:15;;;;;;;1.57;1.40;;;2.40;98.30;;;;;;5033126;28;20249;-86
2021/12/11 05:56:43;;;;;;;2.97;1.83;;;2.30;98.60;;;;;;5034665;28;20199;-87
2021/12/11 05:59:15;;;;;;;2.07;1.60;;;2.30;98.90;;;;;;5045443;28;20226;-85
2021/12/11 06:01:47;;;;;;;2.17;1.77;;;2.40;98.80;;;;;;5037964;28;20200;-87
2021/12/11 06:04:17;;;;;;;2.47;1.63;;;2.40;98.60;;;;;;5028377;28;20713;-86
2021/12/11 06:06:47;;;;;;;1.93;1.63;;;2.30;98.80;;;;;;5035166;28;20305;-87
2021/12/11 06:09:19;;;;;;;2.23;1.70;;;2.30;98.90;;;;;;5035254;28;20239;-86
2021/12/11 06:11:49;;;;;;;1.77;1.67;;;2.40;98.90;;;;;;5036156;28;20198;-85
2021/12/11 06:14:17;;;;;;;1.80;1.70;;;2.40;98.90;;;;;;5028104;28;20233;-86
2021/12/11 06:16:44;;;;;;;1.63;1.53;;;2.40;98.70;;;;;;5038434;28;20198;-85
2021/12/11 06:19:12;;;;;;;2.17;1.70;;;2.40;98.60;;;;;;5018936;28;20690;-86
2021/12/11 06:21:39;;;;;;;1.83;1.67;;;2.50;98.60;;;;;;5050428;28;20199;-87
2021/12/11 06:24:08;;;;;;;3.97;1.87;;;2.50;98.70;;;;;;5024426;28;20574;-85
2021/12/11 06:26:35;;;;;;;3.67;1.80;;;2.50;98.60;;;;;;5032142;28;20233;-86
2021/12/11 06:29:03;;;;;;;2.87;1.87;;;2.60;98.50;;;;;;5032141;28;20221;-87
2021/12/11 06:31:50;;;;;;;1.77;1.50;;;2.60;98.40;;;;;;5033065;28;20207;-87
2021/12/11 06:34:17;;;;;;;3.00;1.80;;;2.60;98.10;;;;;;5026503;28;20237;-87
2021/12/11 06:36:45;;;;;;;2.27;1.70;;;2.60;98.00;;;;;;5013499;28;20523;-87
2021/12/11 06:39:18;;;;;;;1.63;1.53;;;2.60;97.90;;;;;;5029429;28;20229;-88
2021/12/11 06:41:50;;;;;;;2.90;1.73;;;2.60;97.80;;;;;;5028756;28;20191;-87
2021/12/11 06:44:18;;;;;;;3.30;1.83;;;2.60;97.90;;;;;;5032649;28;20242;-86
2021/12/11 06:46:46;;;;;;;1.70;1.60;;;2.60;97.70;;;;;;5036390;28;20214;-86
2021/12/11 06:49:13;;;;;;;3.07;1.80;;;2.60;97.70;;;;;;5034599;28;20314;-87
2021/12/11 06:51:40;;;;;;;2.17;1.80;;;2.60;97.50;;;;;;5029758;28;20210;-87
2021/12/11 06:54:10;;;;;;;3.53;1.57;;;2.70;97.40;;;;;;5030136;28;20230;-87
2021/12/11 06:56:41;;;;;;;2.87;1.57;;;2.70;97.40;;;;;;5026098;28;20205;-88
2021/12/11 06:59:09;;;;;;;2.60;1.90;;;2.70;97.20;;;;;;5029173;28;20234;-88
2021/12/11 07:01:37;;;;;;;1.87;1.70;;;2.70;97.20;;;;;;5029530;28;20202;-88
2021/12/11 07:04:07;;;;;;;2.43;1.90;;;2.70;97.20;;;;;;5030763;28;20238;-88
2021/12/11 07:06:36;;;;;;;2.47;1.63;;;2.80;96.80;;;;;;5030840;28;20692;-87
2021/12/11 07:09:04;;;;;;;2.40;1.93;;;2.90;96.50;;;;;;5032935;28;20233;-87
2021/12/11 07:11:33;;;;;;;2.80;1.40;;;2.90;96.40;;;;;;5033120;28;20229;-88
2021/12/11 07:14:02;;;;;;;2.20;1.63;;;3.00;96.50;;;;;;5040494;28;20218;-87
2021/12/11 07:16:29;;;;;;;2.30;1.50;;;2.90;96.20;;;;;;5051051;28;20199;-86
2021/12/11 07:18:56;;;;;;;1.70;1.60;;;3.00;96.00;;;;;;5015591;28;20261;-87
2021/12/11 07:21:23;;;;;;;2.73;1.80;;;2.90;96.10;;;;;;5007025;28;20203;-87
2021/12/11 07:23:50;;;;;;;2.90;1.70;;;3.00;96.00;;;;;;5019709;28;20218;-86
2021/12/11 07:26:24;;;;;;;2.97;1.60;;;3.00;96.00;;;;;;5017583;28;20198;-87
2021/12/11 07:28:56;;;;;;;2.17;1.50;;;3.00;95.90;;;;;;5040696;28;20317;-86
2021/12/11 07:31:26;;;;;;;2.97;2.10;;;2.90;96.20;;;;;;5039339;28;20210;-87
2021/12/11 07:33:53;;;;;;;2.10;1.60;;;2.90;96.10;;;;;;5038744;28;20230;-88
2021/12/11 07:36:22;;;;;;;2.33;1.63;;;2.90;96.10;;;;;;5044289;28;20217;-87
2021/12/11 07:38:50;;;;;;;1.83;1.70;;;3.00;96.20;;;;;;5020043;28;20218;-87
2021/12/11 07:41:26;;;;;;;1.90;1.70;;;3.00;96.20;;;;;;5038475;28;20203;-87
2021/12/11 07:43:53;;;;;;;3.60;1.80;;;2.90;96.40;;;;;;5039407;28;20252;-86
2021/12/11 07:46:24;;;;;;;2.83;1.90;;;3.00;96.40;;;;;;5021257;28;20206;-86
2021/12/11 07:48:53;;;;;;;2.57;1.70;;;3.10;96.00;;;;;;5040366;28;20219;-87
2021/12/11 07:51:23;;;;;;;4.93;2.10;;;3.00;96.20;;;;;;5020562;28;20203;-86
2021/12/11 07:53:51;;;;;;;2.10;1.50;;;3.10;95.90;;;;;;5026190;28;20219;-86
2021/12/11 07:56:20;;;;;;;3.47;1.60;;;3.20;95.80;;;;;;5034694;28;20225;-86
2021/12/11 07:58:48;;;;;;;5.17;1.83;;;3.20;95.40;;;;;;5018239;28;20222;-86
2021/12/11 08:01:16;;;;;;;2.40;1.80;;;3.20;95.50;;;;;;5031958;28;20195;-85
2021/12/11 08:03:45;;;;;;;2.20;1.87;;;3.30;95.50;;;;;;5025931;28;20195;-86
2021/12/11 08:06:34;;;;;;;3.50;1.80;;;3.20;95.60;;;;;;5035718;28;20195;-87
2021/12/11 08:09:02;;;;;;;4.00;1.97;;;3.20;95.40;;;;;;5024318;28;20231;-87
2021/12/11 08:11:29;;;;;;;2.53;1.30;;;3.00;95.90;;;;;;5031419;28;20658;-88
2021/12/11 08:13:59;;;;;;;3.13;1.90;;;2.80;96.00;;;;;;5032793;28;20226;-89
2021/12/11 08:16:34;;;;;;;1.30;1.20;;;2.70;96.80;;;;;;5016189;28;20199;-91
2021/12/11 08:19:06;;;;;;;1.60;1.50;;;2.50;97.00;;;;;;5031453;28;20515;-88
2021/12/11 08:21:34;;;;;;;1.33;1.20;;;2.30;97.50;;;;;;5022461;28;20206;-88
2021/12/11 08:24:16;;;;;;;1.47;1.37;;;2.20;98.00;;;;;;5030040;28;20249;-86
2021/12/11 08:26:44;;;;;;;1.60;1.50;;;2.40;98.10;;;;;;5002806;28;20693;-88
2021/12/11 08:29:14;;;;;;;1.60;1.50;;;2.30;97.80;;;;;;5031064;28;20238;-86
2021/12/11 08:31:49;;;;;;;2.93;2.20;;;2.20;98.20;;;;;;5032662;28;20202;-88
2021/12/11 08:34:16;;;;;;;3.00;1.67;;;2.10;98.30;;;;;;5034452;28;20234;-86
2021/12/11 08:36:46;;;;;;;1.63;1.53;;;2.10;98.60;;;;;;5037129;28;20572;-88
2021/12/11 08:39:15;;;;;;;2.17;1.97;;;2.10;98.70;;;;;;5029546;28;20247;-88
2021/12/11 08:41:43;;;;;;;1.90;1.70;;;2.10;98.80;;;;;;5030960;28;20234;-89
2021/12/11 08:44:13;;;;;;;1.67;1.57;;;2.20;98.80;;;;;;5016266;28;20234;-84
2021/12/11 08:46:42;;;;;;;2.17;1.80;;;2.30;98.40;;;;;;5018039;28;20195;-87
2021/12/11 08:49:16;;;;;;;5.67;3.50;;;2.40;98.20;;;;;;5030643;28;20245;-89
2021/12/11 08:51:50;;;;;;;2.47;2.17;;;2.50;98.20;;;;;;5034775;28;20195;-93
2021/12/11 08:54:19;;;;;;;2.53;2.17;;;2.40;98.00;;;;;;5008338;28;20234;-89
2021/12/11 08:56:47;;;;;;;2.30;2.03;;;2.50;97.90;;;;;;5028986;28;20209;-89
2021/12/11 08:59:19;;;;;;;2.40;2.20;;;2.40;98.10;;;;;;5031316;28;20222;-91
2021/12/11 09:01:53;;;;;;;2.30;2.10;;;2.40;97.80;;;;;;5027884;28;20205;-89
2021/12/11 09:04:24;;;;;;;3.07;2.77;;;2.40;97.70;;;;;;5033915;28;20226;-88
2021/12/11 09:06:56;;;;;;;2.60;2.27;;;2.50;97.80;;;;;;5015267;28;20194;-85
2021/12/11 09:09:29;;;;;;;2.47;2.27;;;2.70;97.50;;;;;;5026678;28;20694;-88
2021/12/11 09:12:03;;;;;;;2.60;2.40;;;2.70;97.00;;;;;;5033067;28;20195;-88
2021/12/11 09:14:35;;;;;;;3.63;2.30;;;2.70;96.90;;;;;;5012361;28;20268;-88
2021/12/11 09:17:07;;;;;;;3.10;2.80;;;2.60;97.00;;;;;;5031774;28;20213;-87
2021/12/11 09:19:39;;;;;;;4.00;3.20;;;2.70;97.20;;;;;;5029894;28;20215;-86
2021/12/11 09:22:15;;;;;;;3.00;2.70;;;2.80;97.00;;;;;;5031948;28;20190;-93
2021/12/11 09:24:48;;;;;;;4.53;2.70;;;2.80;96.90;;;;;;5014095;28;20635;-85
2021/12/11 09:27:20;;;;;;;3.17;2.87;;;2.70;96.80;;;;;;5013966;28;20368;-87
2021/12/11 09:29:51;;;;;;;2.83;2.63;;;2.70;97.00;;;;;;5033437;28;20194;-87
2021/12/11 09:32:23;;;;;;;3.47;3.00;;;2.70;97.00;;;;;;5035907;28;20612;-85
2021/12/11 09:34:55;;;;;;;2.97;2.73;;;2.70;96.90;;;;;;5036684;28;20198;-86
2021/12/11 09:37:24;;;;;;;3.93;3.47;;;2.70;96.50;;;;;;5029451;28;20225;-90
2021/12/11 09:40:07;;;;;;;3.53;3.20;;;2.70;96.80;;;;;;5030795;28;20207;-88
2021/12/11 09:42:34;;;;;;;3.17;2.90;;;2.70;96.60;;;;;;5033218;28;20240;-84
2021/12/11 09:45:08;;;;;;;7.37;5.57;;;2.80;96.40;;;;;;5029018;28;20222;-84
2021/12/11 09:48:03;;;;;;;7.30;3.27;;;2.80;96.70;;;;;;5012864;28;20231;-84
2021/12/11 09:50:34;;;;;;;3.63;3.27;;;2.80;96.60;;;;;;5034697;28;20197;-87
2021/12/11 09:53:02;;;;;;;3.30;3.00;;;2.80;96.40;;;;;;5034726;28;20214;-85
2021/12/11 09:55:36;;;;;;;3.40;3.10;;;2.80;95.90;;;;;;5038404;28;20191;-92
2021/12/11 09:58:06;;;;;;;3.40;3.10;;;2.80;96.00;;;;;;5029811;28;20740;-85
2021/12/11 10:00:38;;;;;;;3.37;3.07;;;2.90;95.70;;;;;;5032563;28;20202;-85
2021/12/11 10:03:08;;;;;;;3.20;2.90;;;3.00;95.60;;;;;;5036690;28;20221;-82
2021/12/11 10:05:43;;;;;;;3.47;3.07;;;3.00;95.80;;;;;;5035851;28;20203;-84
2021/12/11 10:08:28;;;;;;;3.17;2.97;;;3.00;95.50;;;;;;5030478;28;20225;-84
2021/12/11 10:11:08;;;;;;;3.20;2.93;;;3.00;95.30;;;;;;5032461;28;20244;-86
2021/12/11 10:13:39;;;;;;;3.30;3.00;;;3.00;95.40;;;;;;5031939;28;20219;-85
2021/12/11 10:16:08;;;;;;;3.47;3.17;;;3.10;95.60;;;;;;5037090;28;20205;-82
2021/12/11 10:18:35;;;;;;;3.37;3.07;;;3.10;95.20;;;;;;5036172;28;20238;-86
2021/12/11 10:21:07;;;;;;;3.27;2.97;;;3.00;95.00;;;;;;5037092;28;20597;-86
2021/12/11 10:23:38;;;;;;;2.67;2.47;;;3.00;95.20;;;;;;5041722;28;20585;-87
2021/12/11 10:26:10;;;;;;;3.53;2.83;;;3.10;95.20;;;;;;5030871;28;20207;-87
2021/12/11 10:28:40;;;;;;;4.70;3.30;;;3.20;95.30;;;;;;5027557;28;20330;-85
2021/12/11 10:31:11;;;;;;;4.33;3.40;;;3.10;94.70;;;;;;5034727;28;20202;-90
2021/12/11 10:33:38;;;;;;;3.83;3.10;;;3.20;95.30;;;;;;5037131;28;20217;-84
2021/12/11 10:36:12;;;;;;;3.23;2.93;;;3.20;94.80;;;;;;5056318;28;20190;-84
2021/12/11 10:38:41;;;;;;;3.20;2.90;;;3.30;94.70;;;;;;5029608;28;20236;-84
2021/12/11 10:41:10;;;;;;;3.23;2.93;;;3.30;94.70;;;;;;5057480;28;20194;-87
2021/12/11 10:43:42;;;;;;;3.37;3.07;;;3.30;94.70;;;;;;5110500;22;20237;-86
2021/12/11 10:46:13;;;;;;;3.23;2.93;;;3.30;94.70;;;;;;5049357;28;20672;-84
2021/12/11 10:48:42;;;;;;;2.90;2.70;;;3.20;94.70;;;;;;5054953;28;20240;-87
2021/12/11 10:51:12;;;;;;;2.93;2.73;;;3.30;94.70;;;;;;5036544;28;20448;-87
2021/12/11 10:54:13;;;;;;;2.90;2.70;;;3.30;94.70;;;;;;5030324;28;20313;-84
2021/12/11 10:56:40;;;;;;;3.60;3.30;;;3.50;94.20;;;;;;5033853;28;20195;-84
2021/12/11 11:06:01;;;;;;;7.07;2.80;;;3.20;94.70;;;;;;5038230;28;20634;-84
2021/12/11 11:08:29;;;;;;;2.93;2.50;;;3.10;94.70;;;;;;5036336;28;20237;-84
2021/12/11 11:11:03;;;;;;;2.90;2.70;;;3.10;94.50;;;;;;5036432;28;20664;-87
2021/12/11 11:13:30;;;;;;;5.00;2.77;;;3.10;94.70;;;;;;5033926;28;20206;-85
2021/12/11 11:16:00;;;;;;;3.63;3.33;;;3.10;94.70;;;;;;5027718;28;20213;-86
2021/12/11 11:18:29;;;;;;;5.87;3.10;;;3.20;94.80;;;;;;5036254;28;20241;-83
2021/12/11 11:21:00;;;;;;;3.27;2.97;;;3.30;94.70;;;;;;5032801;28;20289;-85
2021/12/11 11:23:29;;;;;;;3.20;2.90;;;3.40;94.10;;;;;;5034157;28;20806;-85
2021/12/11 11:25:59;;;;;;;3.70;3.40;;;3.20;93.90;;;;;;5033658;28;20203;-87
2021/12/11 11:28:30;;;;;;;4.20;3.20;;;3.20;94.40;;;;;;5033438;28;20241;-85
2021/12/11 11:31:00;;;;;;;3.63;3.33;;;3.30;94.70;;;;;;5032021;28;20233;-86
2021/12/11 11:33:30;;;;;;;3.70;3.30;;;3.20;94.70;;;;;;5033639;28;20336;-86
2021/12/11 11:35:59;;;;;;;3.33;3.03;;;3.20;94.70;;;;;;5033982;28;20207;-88
2021/12/11 11:38:32;;;;;;;3.80;3.50;;;3.30;94.70;;;;;;5033981;28;20808;-87
2021/12/11 11:41:04;;;;;;;3.30;3.00;;;3.40;94.70;;;;;;5029668;28;20222;-85
2021/12/11 11:43:31;;;;;;;3.73;3.43;;;3.40;94.20;;;;;;5033986;28;20227;-84
2021/12/11 11:45:58;;;;;;;3.17;2.87;;;3.30;93.90;;;;;;5025138;28;20555;-87
2021/12/11 11:48:28;;;;;;;3.07;2.80;;;3.30;94.70;;;;;;5034775;28;20226;-85
2021/12/11 11:50:58;;;;;;;3.20;2.87;;;3.30;94.60;;;;;;5030666;28;20195;-87
2021/12/11 11:53:26;;;;;;;3.20;2.90;;;3.30;94.30;;;;;;5033930;28;20233;-89
2021/12/11 11:55:59;;;;;;;3.60;3.30;;;3.30;94.00;;;;;;5033103;28;20210;-87
2021/12/11 11:58:28;;;;;;;3.23;2.93;;;3.40;94.00;;;;;;5039265;28;20519;-87
2021/12/11 12:00:58;;;;;;;3.23;2.93;;;3.40;93.80;;;;;;5030244;28;20257;-85
2021/12/11 12:03:29;;;;;;;3.87;3.47;;;3.40;93.60;;;;;;5029565;28;20745;-85
2021/12/11 12:05:59;;;;;;;10.63;5.73;;;3.50;93.20;;;;;;5031751;28;20197;-89
2021/12/11 12:08:28;;;;;;;15.13;7.70;;;3.50;93.50;;;;;;5030166;28;20277;-87
2021/12/11 12:11:01;;;;;;;3.67;3.33;;;3.30;93.20;;;;;;5032470;28;20597;-91
2021/12/11 12:13:29;;;;;;;4.03;3.63;;;3.20;93.50;;;;;;5034648;28;20222;-85
2021/12/11 12:16:00;;;;;;;6.83;4.60;;;3.20;93.70;;;;;;5027361;28;20199;-86
2021/12/11 12:18:28;;;;;;;3.83;3.53;;;3.20;94.00;;;;;;5014132;28;20583;-85
2021/12/11 12:20:57;;;;;;;4.10;3.57;;;3.20;93.80;;;;;;5040394;28;20235;-87
2021/12/11 12:23:31;;;;;;;3.43;3.13;;;3.20;93.80;;;;;;5035288;28;20241;-83
2021/12/11 12:26:02;;;;;;;3.53;3.23;;;3.30;93.80;;;;;;5015157;28;20223;-87
2021/12/11 12:28:31;;;;;;;3.60;3.30;;;3.30;93.60;;;;;;5030420;28;20227;-85
2021/12/11 12:31:01;;;;;;;3.43;3.13;;;3.40;93.30;;;;;;5036208;28;20226;-83
2021/12/11 12:33:28;;;;;;;3.50;3.20;;;3.40;93.50;;;;;;5035695;28;20305;-82
2021/12/11 12:35:55;;;;;;;3.53;3.20;;;3.40;93.20;;;;;;5034435;28;20712;-77
2021/12/11 12:38:28;;;;;;;4.10;3.00;;;3.50;93.10;;;;;;5035099;28;20317;-82
2021/12/11 12:41:02;;;;;;;3.47;3.17;;;3.50;93.00;;;;;;5033412;28;20217;-81
2021/12/11 12:46:04;;;;;;;3.53;3.23;;;3.50;93.20;;;;;;5128436;22;20632;-81
2021/12/11 12:48:32;;;;;;;3.80;3.40;;;3.50;93.10;;;;;;4998163;28;20687;-87
2021/12/11 12:51:11;;;;;;;3.50;3.20;;;3.60;92.80;;;;;;4998428;28;20514;-83
2021/12/11 12:53:44;;;;;;;4.73;2.83;;;3.60;92.60;;;;;;4999478;28;20228;-82
2021/12/11 12:56:17;;;;;;;3.10;2.80;;;3.60;92.70;;;;;;5008757;28;20206;-81
2021/12/11 12:59:24;;;;;;;3.93;2.60;;;3.50;92.70;;;;;;5011424;28;20231;-82
2021/12/11 13:01:54;;;;;;;3.37;3.07;;;3.30;92.80;;;;;;5004863;28;20283;-89
2021/12/11 13:04:32;;;;;;;3.40;3.10;;;3.40;93.10;;;;;;5004160;28;20228;-83
2021/12/11 13:07:01;;;;;;;3.77;3.07;;;3.40;93.40;;;;;;5000714;28;20204;-82
2021/12/11 13:09:31;;;;;;;3.07;2.83;;;3.50;92.90;;;;;;5003985;28;20229;-84
2021/12/11 13:12:02;;;;;;;5.83;3.33;;;3.40;92.50;;;;;;5006856;28;20197;-84
2021/12/11 13:14:31;;;;;;;3.40;3.10;;;3.40;92.70;;;;;;4999591;28;20225;-81
2021/12/11 13:17:01;;;;;;;3.60;3.30;;;3.30;93.10;;;;;;4995640;28;20199;-87
2021/12/11 13:19:31;;;;;;;4.00;3.60;;;3.30;92.90;;;;;;4986275;28;20224;-82
2021/12/11 13:22:01;;;;;;;3.70;3.40;;;3.30;92.90;;;;;;4989876;28;20197;-80
2021/12/11 13:24:28;;;;;;;3.40;3.10;;;3.30;93.00;;;;;;4989092;28;20287;-84
2021/12/11 13:27:04;;;;;;;4.10;3.70;;;3.30;92.80;;;;;;4986615;28;20208;-83
2021/12/11 13:29:37;;;;;;;3.93;3.63;;;3.40;92.80;;;;;;4984179;28;20228;-82